Time;durP1;ratioP1;P1;durP2;ratioP2;P2;SDS_P1;SDS_P2;PMS_P1;PMS_P2;Temp;Humidity;BMP_temperature;BMP_pressure;BME280_temperature;BME280_humidity;BME280_pressure;Samples;Min_cycle;Max_cycle;Signal;HPM_P1;HPM_P2
2022/12/10 00:00:05;;;;;;;60.97;28.37;;;;;;;;;;5011125;28;20485;-65
2022/12/10 00:02:32;;;;;;;43.40;20.87;;;;;;;;;;4993533;28;20787;-65
2022/12/10 00:04:59;;;;;;;49.33;23.93;;;;;;;;;;5011134;28;20427;-66
2022/12/10 00:07:25;;;;;;;44.03;23.27;;;;;;;;;;5011015;28;20513;-65
2022/12/10 00:09:52;;;;;;;43.57;23.00;;;;;;;;;;5009926;28;20534;-65
2022/12/10 00:12:18;;;;;;;48.63;24.40;;;;;;;;;;4993430;28;20442;-65
2022/12/10 00:14:45;;;;;;;42.83;22.13;;;;;;;;;;4993566;28;20423;-65
2022/12/10 00:17:11;;;;;;;48.53;24.63;;;;;;;;;;5010812;28;20427;-66
2022/12/10 00:19:38;;;;;;;47.03;23.20;;;;;;;;;;5010831;28;20949;-66
2022/12/10 00:22:07;;;;;;;50.07;25.70;;;;;;;;;;5010873;28;20467;-65
2022/12/10 00:24:34;;;;;;;46.47;22.50;;;;;;;;;;5010865;28;20897;-66
2022/12/10 00:27:00;;;;;;;41.17;22.10;;;;;;;;;;4996067;28;20483;-66
2022/12/10 00:29:27;;;;;;;45.63;22.53;;;;;;;;;;5013047;28;20422;-66
2022/12/10 00:31:54;;;;;;;44.30;23.13;;;;;;;;;;5006551;28;20811;-66
2022/12/10 00:34:20;;;;;;;43.10;21.90;;;;;;;;;;5010148;28;20518;-66
2022/12/10 00:36:47;;;;;;;49.47;25.63;;;;;;;;;;4993130;28;20525;-65
2022/12/10 00:39:16;;;;;;;47.70;24.70;;;;;;;;;;4992417;28;20939;-65
2022/12/10 00:41:43;;;;;;;75.70;33.20;;;;;;;;;;4993204;28;20553;-66
2022/12/10 00:44:10;;;;;;;40.97;21.83;;;;;;;;;;4993287;28;20427;-66
2022/12/10 00:46:37;;;;;;;39.40;20.67;;;;;;;;;;4992989;28;20945;-66
2022/12/10 00:49:04;;;;;;;41.63;21.20;;;;;;;;;;5010647;28;20760;-66
2022/12/10 00:51:30;;;;;;;42.20;22.63;;;;;;;;;;5008981;28;20982;-65
2022/12/10 00:53:57;;;;;;;43.90;22.53;;;;;;;;;;4992804;28;20448;-66
2022/12/10 00:56:25;;;;;;;37.83;21.53;;;;;;;;;;5010475;28;20998;-66
2022/12/10 00:58:52;;;;;;;45.83;23.93;;;;;;;;;;4992884;28;20442;-66
2022/12/10 01:01:37;;;;;;;41.87;21.70;;;;;;;;;;5010108;28;20466;-66
2022/12/10 01:04:08;;;;;;;42.10;21.70;;;;;;;;;;5010599;28;20838;-66
2022/12/10 01:06:35;;;;;;;49.90;24.07;;;;;;;;;;4991698;28;20478;-66
2022/12/10 01:09:05;;;;;;;43.47;22.43;;;;;;;;;;4973597;28;20847;-66
2022/12/10 01:11:36;;;;;;;41.93;22.13;;;;;;;;;;4957858;28;20444;-66
2022/12/10 01:14:04;;;;;;;39.90;22.03;;;;;;;;;;4977036;28;20958;-66
2022/12/10 01:16:30;;;;;;;46.43;22.87;;;;;;;;;;4994420;28;20487;-66
2022/12/10 01:18:57;;;;;;;44.93;21.80;;;;;;;;;;4976951;28;20507;-66
2022/12/10 01:21:24;;;;;;;41.30;22.40;;;;;;;;;;4960840;28;20515;-66
2022/12/10 01:23:51;;;;;;;42.47;21.13;;;;;;;;;;4994536;28;20428;-66
2022/12/10 01:26:25;;;;;;;41.13;21.60;;;;;;;;;;4994212;28;20480;-66
2022/12/10 01:28:53;;;;;;;41.80;21.20;;;;;;;;;;5030157;28;20484;-66
2022/12/10 01:31:20;;;;;;;40.00;20.93;;;;;;;;;;5020984;28;20513;-66
2022/12/10 01:33:47;;;;;;;41.23;19.90;;;;;;;;;;4996641;28;20441;-66
2022/12/10 01:36:14;;;;;;;41.67;20.33;;;;;;;;;;4979887;28;20447;-66
2022/12/10 01:38:42;;;;;;;43.03;21.73;;;;;;;;;;5013703;28;20438;-66
2022/12/10 01:41:12;;;;;;;37.57;20.70;;;;;;;;;;4996219;28;20506;-66
2022/12/10 01:43:53;;;;;;;43.33;21.73;;;;;;;;;;4996318;28;20637;-66
2022/12/10 01:46:19;;;;;;;50.63;24.93;;;;;;;;;;4989378;28;20455;-66
2022/12/10 01:48:46;;;;;;;48.93;23.63;;;;;;;;;;4976841;28;20427;-66
2022/12/10 01:51:13;;;;;;;56.33;29.03;;;;;;;;;;4976399;28;20475;-66
2022/12/10 01:53:40;;;;;;;52.23;27.40;;;;;;;;;;4992588;28;20555;-66
2022/12/10 01:56:08;;;;;;;44.90;23.50;;;;;;;;;;4976827;28;20494;-66
2022/12/10 01:58:35;;;;;;;49.33;25.20;;;;;;;;;;4976155;28;21163;-66
2022/12/10 02:01:04;;;;;;;46.50;23.67;;;;;;;;;;4960096;28;21081;-66
2022/12/10 02:03:35;;;;;;;44.77;21.53;;;;;;;;;;4976690;28;20435;-66
2022/12/10 02:06:13;;;;;;;38.50;19.07;;;;;;;;;;4976444;28;20466;-66
2022/12/10 02:08:43;;;;;;;39.70;18.70;;;;;;;;;;4976105;28;20435;-65
2022/12/10 02:11:11;;;;;;;35.27;18.90;;;;;;;;;;4992170;28;20475;-66
2022/12/10 02:13:42;;;;;;;37.40;17.97;;;;;;;;;;4993270;28;20508;-66
2022/12/10 02:16:12;;;;;;;34.43;17.93;;;;;;;;;;4976343;28;20823;-66
2022/12/10 02:19:15;;;;;;;38.67;22.03;;;;;;;;;;4978477;28;20446;-66
2022/12/10 02:21:41;;;;;;;37.67;19.67;;;;;;;;;;4993419;28;20475;-66
2022/12/10 02:24:11;;;;;;;36.63;19.13;;;;;;;;;;4960209;28;20935;-66
2022/12/10 02:26:38;;;;;;;37.40;18.17;;;;;;;;;;4975984;28;20482;-66
2022/12/10 02:29:15;;;;;;;31.07;16.37;;;;;;;;;;5014341;28;20941;-66
2022/12/10 02:32:08;;;;;;;38.97;19.10;;;;;;;;;;5016010;28;20928;-66
2022/12/10 02:34:36;;;;;;;30.27;14.80;;;;;;;;;;5003107;28;21148;-66
2022/12/10 02:37:05;;;;;;;29.07;14.63;;;;;;;;;;4975323;28;20535;-66
2022/12/10 02:39:34;;;;;;;25.83;14.30;;;;;;;;;;4959624;28;20530;-66
2022/12/10 02:42:03;;;;;;;27.43;14.93;;;;;;;;;;4959603;28;20487;-66
2022/12/10 02:44:30;;;;;;;27.30;13.97;;;;;;;;;;4993080;28;20432;-66
2022/12/10 02:46:57;;;;;;;29.80;15.20;;;;;;;;;;4959196;28;20440;-66
2022/12/10 02:49:29;;;;;;;28.77;15.33;;;;;;;;;;4975426;28;20541;-66
2022/12/10 02:52:14;;;;;;;32.70;17.73;;;;;;;;;;4975451;28;20587;-66
2022/12/10 02:54:44;;;;;;;29.00;15.60;;;;;;;;;;4991625;28;20436;-66
2022/12/10 02:57:35;;;;;;;25.13;14.63;;;;;;;;;;4991445;28;20432;-66
2022/12/10 03:00:06;;;;;;;26.93;13.97;;;;;;;;;;4991531;28;20436;-66
2022/12/10 03:02:44;;;;;;;27.63;14.07;;;;;;;;;;4991423;28;20436;-66
2022/12/10 03:05:14;;;;;;;28.87;14.83;;;;;;;;;;4975161;28;20451;-66
2022/12/10 03:07:43;;;;;;;28.30;14.37;;;;;;;;;;4981739;28;20534;-66
2022/12/10 03:10:20;;;;;;;24.77;13.07;;;;;;;;;;5012074;28;20438;-66
2022/12/10 03:12:48;;;;;;;25.20;12.90;;;;;;;;;;5012113;28;20423;-66
2022/12/10 03:15:14;;;;;;;23.07;11.93;;;;;;;;;;5011978;28;20530;-66
2022/12/10 03:17:41;;;;;;;21.57;12.17;;;;;;;;;;4994325;28;20958;-66
2022/12/10 03:20:09;;;;;;;24.30;12.93;;;;;;;;;;4994723;28;20446;-66
2022/12/10 03:22:37;;;;;;;24.03;12.17;;;;;;;;;;4994330;28;20467;-66
2022/12/10 03:25:04;;;;;;;22.70;11.80;;;;;;;;;;4978093;28;20486;-66
2022/12/10 03:27:30;;;;;;;22.27;11.27;;;;;;;;;;5005251;28;20442;-66
2022/12/10 03:29:57;;;;;;;23.57;10.97;;;;;;;;;;5013769;28;20465;-66
2022/12/10 03:32:24;;;;;;;18.60;10.40;;;;;;;;;;5031464;28;20427;-66
2022/12/10 03:34:51;;;;;;;21.13;10.80;;;;;;;;;;5013265;28;20426;-66
2022/12/10 03:37:18;;;;;;;18.97;10.50;;;;;;;;;;5013807;28;20469;-66
2022/12/10 03:39:44;;;;;;;24.87;12.07;;;;;;;;;;5031130;28;20847;-66
2022/12/10 03:42:11;;;;;;;21.17;11.83;;;;;;;;;;4993496;28;20479;-66
2022/12/10 03:44:38;;;;;;;24.87;12.27;;;;;;;;;;4990551;28;20491;-66
2022/12/10 03:47:04;;;;;;;21.43;11.37;;;;;;;;;;4990786;28;20531;-66
2022/12/10 03:49:31;;;;;;;21.03;11.30;;;;;;;;;;4990754;28;20512;-66
2022/12/10 03:51:58;;;;;;;21.80;11.13;;;;;;;;;;4991542;28;20843;-66
2022/12/10 03:54:24;;;;;;;21.53;10.60;;;;;;;;;;4974436;28;20823;-66
2022/12/10 03:56:53;;;;;;;19.53;10.93;;;;;;;;;;4991672;28;20447;-66
2022/12/10 03:59:20;;;;;;;23.50;12.93;;;;;;;;;;4991827;28;20515;-66
2022/12/10 04:01:46;;;;;;;23.07;11.83;;;;;;;;;;4990430;28;20502;-66
2022/12/10 04:04:13;;;;;;;20.10;10.17;;;;;;;;;;4980578;28;20452;-66
2022/12/10 04:06:40;;;;;;;21.83;10.57;;;;;;;;;;4991462;28;20529;-66
2022/12/10 04:09:06;;;;;;;19.03;9.87;;;;;;;;;;4973812;28;20935;-66
2022/12/10 04:11:33;;;;;;;21.40;11.17;;;;;;;;;;4974267;28;20555;-66
2022/12/10 04:16:45;;;;;;;22.53;11.13;;;;;;;;;;4991338;28;20490;-67
2022/12/10 04:19:13;;;;;;;25.67;11.70;;;;;;;;;;4991178;28;20780;-66
2022/12/10 04:27:25;;;;;;;21.20;11.60;;;;;;;;;;5014989;28;20438;-66
2022/12/10 04:29:52;;;;;;;21.27;11.70;;;;;;;;;;5012563;28;20445;-66
2022/12/10 04:32:19;;;;;;;22.27;10.80;;;;;;;;;;5013194;28;20427;-66
2022/12/10 04:34:45;;;;;;;21.90;10.93;;;;;;;;;;5030324;28;20449;-66
2022/12/10 04:37:12;;;;;;;20.43;10.50;;;;;;;;;;5030605;28;20517;-66
2022/12/10 04:39:39;;;;;;;21.10;10.90;;;;;;;;;;5030312;28;20434;-68
2022/12/10 04:42:06;;;;;;;19.03;10.43;;;;;;;;;;5021620;28;20837;-67
2022/12/10 04:44:32;;;;;;;18.77;10.37;;;;;;;;;;4973846;28;20440;-66
2022/12/10 04:46:59;;;;;;;22.90;10.77;;;;;;;;;;4992228;28;20436;-66
2022/12/10 04:49:25;;;;;;;18.90;10.13;;;;;;;;;;4994923;28;20534;-66
2022/12/10 04:52:10;;;;;;;19.07;10.80;;;;;;;;;;4974541;28;20460;-66
2022/12/10 04:54:37;;;;;;;19.87;10.33;;;;;;;;;;4974179;28;20524;-66
2022/12/10 04:57:21;;;;;;;19.93;10.77;;;;;;;;;;4975696;28;20462;-66
2022/12/10 04:59:47;;;;;;;19.77;11.60;;;;;;;;;;4973949;28;20768;-67
2022/12/10 05:02:31;;;;;;;19.43;11.53;;;;;;;;;;4975399;28;20539;-66
2022/12/10 05:04:58;;;;;;;20.53;10.97;;;;;;;;;;4974519;28;20952;-66
2022/12/10 05:07:25;;;;;;;18.07;10.47;;;;;;;;;;4975363;28;20941;-66
2022/12/10 05:09:51;;;;;;;20.00;11.63;;;;;;;;;;4975006;28;20951;-67
2022/12/10 05:12:18;;;;;;;21.27;11.27;;;;;;;;;;4975109;28;20769;-66
2022/12/10 05:14:44;;;;;;;20.80;10.63;;;;;;;;;;4974954;28;21007;-66
2022/12/10 05:17:11;;;;;;;19.50;10.10;;;;;;;;;;4975645;28;21892;-66
2022/12/10 05:19:37;;;;;;;19.07;10.00;;;;;;;;;;4993905;28;20438;-67
2022/12/10 05:24:49;;;;;;;21.27;10.27;;;;;;;;;;4993088;28;21176;-66
2022/12/10 05:27:15;;;;;;;19.53;10.53;;;;;;;;;;4998816;28;20447;-66
2022/12/10 05:29:42;;;;;;;20.23;10.57;;;;;;;;;;5013856;28;20423;-67
2022/12/10 05:32:09;;;;;;;19.93;10.93;;;;;;;;;;5012773;28;20853;-67
2022/12/10 05:34:35;;;;;;;17.80;10.47;;;;;;;;;;4998540;28;20525;-67
2022/12/10 05:37:02;;;;;;;19.27;10.53;;;;;;;;;;4994591;28;20523;-66
2022/12/10 05:39:28;;;;;;;20.67;11.73;;;;;;;;;;4994079;28;20432;-66
2022/12/10 05:41:55;;;;;;;23.70;11.80;;;;;;;;;;4994021;28;20477;-66
2022/12/10 05:44:21;;;;;;;21.47;13.00;;;;;;;;;;4992988;28;21217;-66
2022/12/10 05:46:48;;;;;;;21.37;12.67;;;;;;;;;;4994013;28;20455;-67
2022/12/10 05:49:14;;;;;;;21.77;11.70;;;;;;;;;;4993797;28;20791;-67
2022/12/10 05:51:41;;;;;;;19.53;10.40;;;;;;;;;;4991647;28;20554;-67
2022/12/10 05:54:09;;;;;;;18.53;11.23;;;;;;;;;;4994047;28;20424;-67
2022/12/10 05:56:36;;;;;;;17.00;9.30;;;;;;;;;;4993722;28;20518;-67
2022/12/10 05:59:03;;;;;;;20.73;10.20;;;;;;;;;;4993470;28;20432;-66
2022/12/10 06:01:30;;;;;;;20.10;11.17;;;;;;;;;;4992202;28;20467;-67
2022/12/10 06:03:58;;;;;;;17.40;9.67;;;;;;;;;;4992456;28;20439;-66
2022/12/10 06:06:31;;;;;;;21.07;10.57;;;;;;;;;;4992384;28;20435;-66
2022/12/10 06:09:15;;;;;;;18.17;9.70;;;;;;;;;;4986219;28;20428;-66
2022/12/10 06:11:42;;;;;;;17.17;9.30;;;;;;;;;;4964982;28;20487;-67
2022/12/10 06:14:09;;;;;;;19.07;10.93;;;;;;;;;;4974454;28;20440;-66
2022/12/10 06:16:35;;;;;;;18.13;10.73;;;;;;;;;;4972748;28;20564;-66
2022/12/10 06:19:02;;;;;;;19.70;10.87;;;;;;;;;;4973995;28;20466;-66
2022/12/10 06:21:29;;;;;;;19.00;10.77;;;;;;;;;;4973928;28;20457;-67
2022/12/10 06:23:55;;;;;;;18.60;10.67;;;;;;;;;;4973875;28;20433;-67
2022/12/10 06:26:22;;;;;;;19.37;10.73;;;;;;;;;;4978022;28;20783;-67
2022/12/10 06:28:49;;;;;;;18.00;10.00;;;;;;;;;;5008932;28;20431;-67
2022/12/10 06:31:16;;;;;;;17.77;9.97;;;;;;;;;;5012834;28;20428;-66
2022/12/10 06:33:43;;;;;;;19.27;10.47;;;;;;;;;;5011690;28;20431;-67
2022/12/10 06:36:10;;;;;;;20.23;11.53;;;;;;;;;;5012850;28;20518;-67
2022/12/10 06:38:37;;;;;;;21.10;11.57;;;;;;;;;;5011436;28;20435;-67
2022/12/10 06:41:03;;;;;;;22.83;12.57;;;;;;;;;;5006667;28;20521;-67
2022/12/10 06:43:30;;;;;;;23.30;12.17;;;;;;;;;;4972418;28;20437;-67
2022/12/10 06:45:56;;;;;;;25.20;13.57;;;;;;;;;;4972144;28;20445;-67
2022/12/10 06:48:23;;;;;;;25.33;13.00;;;;;;;;;;4973383;28;20499;-67
2022/12/10 06:50:50;;;;;;;27.87;12.90;;;;;;;;;;4981335;28;20464;-67
2022/12/10 06:53:16;;;;;;;24.13;12.90;;;;;;;;;;4991519;28;20956;-67
2022/12/10 06:55:43;;;;;;;21.63;12.33;;;;;;;;;;4975371;28;20433;-67
2022/12/10 06:58:09;;;;;;;20.30;12.17;;;;;;;;;;5004185;28;20489;-67
2022/12/10 07:00:36;;;;;;;22.13;11.90;;;;;;;;;;5012014;28;20442;-67
2022/12/10 07:03:02;;;;;;;20.23;11.03;;;;;;;;;;4989568;28;20969;-68
2022/12/10 07:05:30;;;;;;;19.73;11.33;;;;;;;;;;4991564;28;20430;-68
2022/12/10 07:07:57;;;;;;;19.83;11.53;;;;;;;;;;4979330;28;20474;-67
2022/12/10 07:10:25;;;;;;;20.23;10.63;;;;;;;;;;4990846;28;20541;-67
2022/12/10 07:12:51;;;;;;;25.13;12.70;;;;;;;;;;4975801;28;20501;-68
2022/12/10 07:15:18;;;;;;;32.23;15.17;;;;;;;;;;5008666;28;20454;-67
2022/12/10 07:17:45;;;;;;;28.30;14.00;;;;;;;;;;5009763;28;20466;-67
2022/12/10 07:20:12;;;;;;;26.07;13.17;;;;;;;;;;5010018;28;20431;-66
2022/12/10 07:22:38;;;;;;;21.63;11.37;;;;;;;;;;5009175;28;20566;-66
2022/12/10 07:25:05;;;;;;;23.50;13.33;;;;;;;;;;5009436;28;20439;-67
2022/12/10 07:27:32;;;;;;;24.97;15.37;;;;;;;;;;5015588;28;20526;-66
2022/12/10 07:29:58;;;;;;;37.00;20.33;;;;;;;;;;5008942;28;20438;-68
2022/12/10 07:32:26;;;;;;;25.07;14.27;;;;;;;;;;4991175;28;20980;-69
2022/12/10 07:34:53;;;;;;;25.80;13.20;;;;;;;;;;4991049;28;20466;-68
2022/12/10 07:37:19;;;;;;;31.40;15.83;;;;;;;;;;5008748;28;20565;-68
2022/12/10 07:39:46;;;;;;;24.63;14.23;;;;;;;;;;5006364;28;20463;-68
2022/12/10 07:42:13;;;;;;;26.67;14.43;;;;;;;;;;4972363;28;20482;-68
2022/12/10 07:44:40;;;;;;;28.47;15.70;;;;;;;;;;5004367;28;20446;-69
2022/12/10 07:47:13;;;;;;;32.97;18.30;;;;;;;;;;4967413;28;20533;-69
2022/12/10 07:49:39;;;;;;;29.73;16.77;;;;;;;;;;4974078;28;20505;-64
2022/12/10 07:52:08;;;;;;;24.73;12.77;;;;;;;;;;5012872;28;20473;-68
2022/12/10 07:54:35;;;;;;;25.80;13.60;;;;;;;;;;4983296;28;20449;-67
2022/12/10 07:57:01;;;;;;;30.63;16.10;;;;;;;;;;4997845;28;20502;-68
2022/12/10 07:59:28;;;;;;;61.33;31.80;;;;;;;;;;5002470;28;20451;-66
2022/12/10 08:01:55;;;;;;;50.27;27.63;;;;;;;;;;4981681;28;20475;-66
2022/12/10 08:04:22;;;;;;;54.13;29.43;;;;;;;;;;5007487;28;20518;-67
2022/12/10 08:06:49;;;;;;;63.53;27.37;;;;;;;;;;5001573;28;20438;-67
2022/12/10 08:09:16;;;;;;;21.07;11.83;;;;;;;;;;5003458;28;20522;-65
2022/12/10 08:11:42;;;;;;;22.63;11.80;;;;;;;;;;5011667;28;20451;-65
2022/12/10 08:14:09;;;;;;;22.50;12.77;;;;;;;;;;5011578;28;20501;-65
2022/12/10 08:16:36;;;;;;;26.43;14.30;;;;;;;;;;5010310;28;20439;-65
2022/12/10 08:19:03;;;;;;;33.47;18.70;;;;;;;;;;5005758;28;20862;-66
2022/12/10 08:21:30;;;;;;;34.67;18.03;;;;;;;;;;5009931;28;20443;-65
2022/12/10 08:23:57;;;;;;;64.63;33.63;;;;;;;;;;4993531;28;20562;-65
2022/12/10 08:26:26;;;;;;;52.67;26.30;;;;;;;;;;4993409;28;20443;-66
2022/12/10 08:28:54;;;;;;;43.13;21.80;;;;;;;;;;4987074;28;20435;-65
2022/12/10 08:31:21;;;;;;;28.53;15.17;;;;;;;;;;4987727;28;20458;-65
2022/12/10 08:33:48;;;;;;;30.30;15.60;;;;;;;;;;4993198;28;20419;-65
2022/12/10 08:36:15;;;;;;;38.77;20.33;;;;;;;;;;5010781;28;20466;-65
2022/12/10 08:38:42;;;;;;;28.30;14.23;;;;;;;;;;4991365;28;20443;-66
2022/12/10 08:41:10;;;;;;;27.27;14.07;;;;;;;;;;5011251;28;20551;-65
2022/12/10 08:43:36;;;;;;;28.10;14.77;;;;;;;;;;5010300;28;20541;-67
2022/12/10 08:46:03;;;;;;;30.10;16.13;;;;;;;;;;5010649;28;20501;-67
2022/12/10 08:48:30;;;;;;;31.43;16.60;;;;;;;;;;5010416;28;20798;-67
2022/12/10 08:50:56;;;;;;;23.60;13.03;;;;;;;;;;5010710;28;20470;-67
2022/12/10 08:53:23;;;;;;;26.40;13.90;;;;;;;;;;4974151;28;20451;-67
2022/12/10 08:55:50;;;;;;;24.40;13.53;;;;;;;;;;5008992;28;20573;-67
2022/12/10 08:58:17;;;;;;;25.23;13.87;;;;;;;;;;5010714;28;20522;-67
2022/12/10 09:00:44;;;;;;;27.23;13.67;;;;;;;;;;4987189;28;20463;-67
2022/12/10 09:03:11;;;;;;;26.23;14.57;;;;;;;;;;4984695;28;20883;-67
2022/12/10 09:05:37;;;;;;;29.97;15.00;;;;;;;;;;4976359;28;21013;-67
2022/12/10 09:08:04;;;;;;;33.30;16.87;;;;;;;;;;4989881;28;20436;-67
2022/12/10 09:10:31;;;;;;;35.97;16.57;;;;;;;;;;5007732;28;20485;-67
2022/12/10 09:12:58;;;;;;;33.30;16.43;;;;;;;;;;4995374;28;20478;-67
2022/12/10 09:15:29;;;;;;;35.77;16.73;;;;;;;;;;4989658;28;20985;-67
2022/12/10 09:17:55;;;;;;;33.33;17.63;;;;;;;;;;4990096;28;20432;-67
2022/12/10 09:20:25;;;;;;;51.67;23.20;;;;;;;;;;5008095;28;20538;-67
2022/12/10 09:22:51;;;;;;;39.17;19.33;;;;;;;;;;4988181;28;20842;-67
2022/12/10 09:25:21;;;;;;;42.53;19.90;;;;;;;;;;4989823;28;20454;-67
2022/12/10 09:27:48;;;;;;;35.60;18.10;;;;;;;;;;5015505;28;21028;-68
2022/12/10 09:30:16;;;;;;;38.73;19.93;;;;;;;;;;4988433;28;20455;-67
2022/12/10 09:32:42;;;;;;;36.47;18.23;;;;;;;;;;4990683;28;20869;-68
2022/12/10 09:35:10;;;;;;;34.77;18.13;;;;;;;;;;5008683;28;20486;-67
2022/12/10 09:37:36;;;;;;;30.70;16.17;;;;;;;;;;5013833;28;20438;-67
2022/12/10 09:40:03;;;;;;;32.80;16.13;;;;;;;;;;4992994;28;20451;-67
2022/12/10 09:42:45;;;;;;;34.37;18.53;;;;;;;;;;5012804;28;20459;-67
2022/12/10 09:45:15;;;;;;;32.33;17.00;;;;;;;;;;4992387;28;20904;-67
2022/12/10 09:47:51;;;;;;;34.03;18.93;;;;;;;;;;4993626;28;20867;-67
2022/12/10 09:50:30;;;;;;;28.67;15.07;;;;;;;;;;4991675;28;21245;-67
2022/12/10 09:52:57;;;;;;;28.90;15.30;;;;;;;;;;5005346;28;20966;-67
2022/12/10 09:55:37;;;;;;;29.93;16.27;;;;;;;;;;4994359;28;20436;-67
2022/12/10 09:58:04;;;;;;;55.33;26.63;;;;;;;;;;4970355;28;20479;-69
2022/12/10 10:00:35;;;;;;;32.30;16.47;;;;;;;;;;4969095;28;20831;-69
2022/12/10 10:03:02;;;;;;;34.60;18.83;;;;;;;;;;4972739;28;20615;-68
2022/12/10 10:05:50;;;;;;;32.50;17.50;;;;;;;;;;4973252;28;20443;-68
2022/12/10 10:08:31;;;;;;;29.70;16.30;;;;;;;;;;4977937;28;20482;-70
2022/12/10 10:11:17;;;;;;;22.70;13.00;;;;;;;;;;4998514;28;20800;-70
2022/12/10 10:14:08;;;;;;;26.63;14.83;;;;;;;;;;4969207;28;20448;-66
2022/12/10 10:16:41;;;;;;;29.77;16.43;;;;;;;;;;4977585;28;20808;-65
2022/12/10 10:19:13;;;;;;;27.47;15.17;;;;;;;;;;5010167;28;20457;-68
2022/12/10 10:21:44;;;;;;;27.27;17.40;;;;;;;;;;4997693;28;20438;-68
2022/12/10 10:24:19;;;;;;;29.77;19.87;;;;;;;;;;4972761;28;20484;-68
2022/12/10 10:26:47;;;;;;;25.47;16.03;;;;;;;;;;4982224;28;20462;-68
2022/12/10 10:29:17;;;;;;;25.97;15.60;;;;;;;;;;4972369;28;20467;-66
2022/12/10 10:31:44;;;;;;;28.13;16.67;;;;;;;;;;4977736;28;20491;-69
2022/12/10 10:34:14;;;;;;;26.97;16.67;;;;;;;;;;4972488;28;20440;-66
2022/12/10 10:36:41;;;;;;;27.43;15.97;;;;;;;;;;4994004;28;20432;-65
2022/12/10 10:39:20;;;;;;;29.40;17.17;;;;;;;;;;5011139;28;20547;-68
2022/12/10 10:41:49;;;;;;;28.30;15.97;;;;;;;;;;5011146;28;20789;-68
2022/12/10 10:44:23;;;;;;;28.00;16.20;;;;;;;;;;4991316;28;20486;-69
2022/12/10 10:46:51;;;;;;;26.17;14.23;;;;;;;;;;4989708;28;20535;-66
2022/12/10 10:49:38;;;;;;;39.13;19.73;;;;;;;;;;4989906;28;20452;-66
2022/12/10 10:52:06;;;;;;;38.63;18.73;;;;;;;;;;5009286;28;20524;-66
2022/12/10 10:54:36;;;;;;;58.67;26.83;;;;;;;;;;4991243;28;20445;-66
2022/12/10 10:57:10;;;;;;;58.50;27.00;;;;;;;;;;4992947;28;20503;-67
2022/12/10 10:59:37;;;;;;;32.27;16.97;;;;;;;;;;4990610;28;21009;-65
2022/12/10 11:02:09;;;;;;;30.17;16.30;;;;;;;;;;4985862;28;20475;-65
2022/12/10 11:04:35;;;;;;;29.40;17.33;;;;;;;;;;4990845;28;20492;-67
2022/12/10 11:07:02;;;;;;;26.17;16.97;;;;;;;;;;5009755;28;20434;-68
2022/12/10 11:09:32;;;;;;;27.83;16.67;;;;;;;;;;5005710;28;20962;-67
2022/12/10 11:12:00;;;;;;;27.27;16.73;;;;;;;;;;4990337;28;20775;-68
2022/12/10 11:14:30;;;;;;;27.60;16.87;;;;;;;;;;4989035;28;20938;-67
2022/12/10 11:17:09;;;;;;;30.40;16.93;;;;;;;;;;5013184;28;20525;-67
2022/12/10 11:20:04;;;;;;;25.20;16.13;;;;;;;;;;5013230;28;20474;-67
2022/12/10 11:22:31;;;;;;;30.00;18.23;;;;;;;;;;4995341;28;20454;-67
2022/12/10 11:24:58;;;;;;;28.60;17.10;;;;;;;;;;5004764;28;20568;-67
2022/12/10 11:27:40;;;;;;;28.17;15.97;;;;;;;;;;5004962;28;20929;-67
2022/12/10 11:30:12;;;;;;;30.00;18.03;;;;;;;;;;5011704;28;20188;-66
2022/12/10 11:32:58;;;;;;;26.40;16.53;;;;;;;;;;5014788;28;20195;-67
2022/12/10 11:35:43;;;;;;;30.17;17.87;;;;;;;;;;5032624;28;20430;-67
2022/12/10 11:38:20;;;;;;;29.00;17.80;;;;;;;;;;4995779;28;20176;-67
2022/12/10 11:40:53;;;;;;;36.93;19.17;;;;;;;;;;5014787;28;20191;-67
2022/12/10 11:43:32;;;;;;;35.90;20.03;;;;;;;;;;4992221;28;20220;-67
2022/12/10 11:46:12;;;;;;;33.37;18.20;;;;;;;;;;5001853;28;20427;-67
2022/12/10 11:48:53;;;;;;;33.37;19.03;;;;;;;;;;5014925;28;20440;-69
2022/12/10 11:51:30;;;;;;;29.97;17.77;;;;;;;;;;5032048;28;20489;-67
2022/12/10 11:53:57;;;;;;;31.97;17.10;;;;;;;;;;5014423;28;20437;-68
2022/12/10 11:56:24;;;;;;;30.30;17.13;;;;;;;;;;5031621;28;20422;-68
2022/12/10 11:58:54;;;;;;;29.27;16.90;;;;;;;;;;5032107;28;20440;-67
2022/12/10 12:01:39;;;;;;;31.10;16.90;;;;;;;;;;5032377;28;20426;-68
2022/12/10 12:07:17;;;;;;;30.60;16.90;;;;;;;;;;5012359;28;20435;-71
2022/12/10 12:09:46;;;;;;;32.23;18.20;;;;;;;;;;5010288;28;20471;-71
2022/12/10 12:12:13;;;;;;;28.50;16.77;;;;;;;;;;4997492;28;20433;-68
2022/12/10 12:14:40;;;;;;;30.83;17.07;;;;;;;;;;5006401;28;20440;-67
2022/12/10 12:17:16;;;;;;;31.23;17.97;;;;;;;;;;4980272;28;20571;-67
2022/12/10 12:19:45;;;;;;;36.40;21.43;;;;;;;;;;4989062;28;20525;-66
2022/12/10 12:22:14;;;;;;;39.73;21.90;;;;;;;;;;4986821;28;20850;-65
2022/12/10 12:24:41;;;;;;;40.73;20.87;;;;;;;;;;4986628;28;20483;-67
2022/12/10 12:27:28;;;;;;;34.03;19.67;;;;;;;;;;4997443;28;20925;-65
2022/12/10 12:29:54;;;;;;;30.77;17.47;;;;;;;;;;4983323;28;20970;-67
2022/12/10 12:32:24;;;;;;;28.47;17.37;;;;;;;;;;5012028;28;20485;-64
2022/12/10 12:34:51;;;;;;;37.07;19.87;;;;;;;;;;4976683;28;20444;-68
2022/12/10 12:37:29;;;;;;;34.37;18.50;;;;;;;;;;4981373;28;20458;-65
2022/12/10 12:40:15;;;;;;;38.20;22.73;;;;;;;;;;4989305;28;20455;-65
2022/12/10 12:42:42;;;;;;;35.60;19.07;;;;;;;;;;5003161;28;20787;-66
2022/12/10 12:45:24;;;;;;;39.13;20.13;;;;;;;;;;4998519;28;20451;-66
2022/12/10 12:47:51;;;;;;;35.33;18.73;;;;;;;;;;4983705;28;20474;-66
2022/12/10 12:50:33;;;;;;;43.70;24.50;;;;;;;;;;4999074;28;20479;-66
2022/12/10 12:53:00;;;;;;;66.63;33.90;;;;;;;;;;4997585;28;20868;-66
2022/12/10 12:55:39;;;;;;;132.60;53.53;;;;;;;;;;4985053;28;20973;-66
2022/12/10 12:58:26;;;;;;;168.67;64.00;;;;;;;;;;4973539;28;20807;-66
2022/12/10 13:00:55;;;;;;;133.23;56.50;;;;;;;;;;4984926;28;20451;-66
2022/12/10 13:03:33;;;;;;;329.30;104.57;;;;;;;;;;4991956;28;20480;-66
2022/12/10 13:06:12;;;;;;;122.57;46.53;;;;;;;;;;4981264;28;20464;-66
2022/12/10 13:08:49;;;;;;;108.17;44.57;;;;;;;;;;4999759;28;20452;-66
2022/12/10 13:11:27;;;;;;;58.43;29.57;;;;;;;;;;5003309;28;20456;-65
2022/12/10 13:14:06;;;;;;;107.30;44.20;;;;;;;;;;5001459;28;20546;-66
2022/12/10 13:16:44;;;;;;;125.00;50.30;;;;;;;;;;5001754;28;20443;-76
2022/12/10 13:19:32;;;;;;;110.97;47.20;;;;;;;;;;4995377;28;20878;-74
2022/12/10 13:22:02;;;;;;;61.43;29.30;;;;;;;;;;4989650;28;20490;-67
2022/12/10 13:24:59;;;;;;;54.00;26.43;;;;;;;;;;5006268;28;20522;-67
2022/12/10 13:27:33;;;;;;;47.67;24.37;;;;;;;;;;4997874;28;20478;-68
2022/12/10 13:30:02;;;;;;;48.83;24.63;;;;;;;;;;4986146;28;20449;-67
2022/12/10 13:32:29;;;;;;;45.10;25.33;;;;;;;;;;5004067;28;20843;-67
2022/12/10 13:35:08;;;;;;;39.57;22.73;;;;;;;;;;4983929;28;20804;-67
2022/12/10 13:37:38;;;;;;;52.67;30.93;;;;;;;;;;4990278;28;20915;-67
2022/12/10 13:40:08;;;;;;;42.93;23.30;;;;;;;;;;4983958;28;20508;-67
2022/12/10 13:45:42;;;;;;;44.17;24.93;;;;;;;;;;4953204;28;21185;-69
2022/12/10 13:48:16;;;;;;;39.13;21.00;;;;;;;;;;4946646;29;20457;-71
2022/12/10 13:50:52;;;;;;;42.47;22.10;;;;;;;;;;4968935;28;20934;-70
2022/12/10 13:53:40;;;;;;;39.73;20.03;;;;;;;;;;5011604;28;20790;-70
2022/12/10 13:56:16;;;;;;;37.87;19.80;;;;;;;;;;5009196;28;20542;-71
2022/12/10 13:59:00;;;;;;;42.07;21.37;;;;;;;;;;5010945;28;20426;-70
2022/12/10 14:01:37;;;;;;;42.23;20.17;;;;;;;;;;5011260;28;20574;-70
2022/12/10 14:04:10;;;;;;;41.70;20.57;;;;;;;;;;4978447;28;20470;-70
2022/12/10 14:06:37;;;;;;;48.70;22.07;;;;;;;;;;4978187;28;20439;-70
2022/12/10 14:09:06;;;;;;;50.03;22.53;;;;;;;;;;4977781;28;20450;-69
2022/12/10 14:11:52;;;;;;;51.90;23.97;;;;;;;;;;4977583;28;20490;-74
2022/12/10 14:14:28;;;;;;;54.90;25.70;;;;;;;;;;4976917;28;20437;-68
2022/12/10 14:16:55;;;;;;;41.73;21.27;;;;;;;;;;4993136;28;20442;-68
2022/12/10 14:19:22;;;;;;;48.57;23.80;;;;;;;;;;5004052;28;20450;-68
2022/12/10 14:21:49;;;;;;;45.53;22.77;;;;;;;;;;4976994;28;20882;-68
2022/12/10 14:24:26;;;;;;;64.53;29.03;;;;;;;;;;4979981;28;20479;-68
2022/12/10 14:26:57;;;;;;;62.20;30.80;;;;;;;;;;5011681;28;20500;-68
2022/12/10 14:29:23;;;;;;;62.53;30.17;;;;;;;;;;5033650;28;21016;-68
2022/12/10 14:31:54;;;;;;;69.23;32.10;;;;;;;;;;4987206;28;20458;-68
2022/12/10 14:34:23;;;;;;;81.67;34.83;;;;;;;;;;5033419;28;20446;-68
2022/12/10 14:36:51;;;;;;;242.90;82.60;;;;;;;;;;5015841;28;20836;-68
2022/12/10 14:39:21;;;;;;;99.70;40.70;;;;;;;;;;5015843;28;20434;-67
2022/12/10 14:41:48;;;;;;;53.57;27.30;;;;;;;;;;5015727;28;20480;-67
2022/12/10 14:44:16;;;;;;;49.00;24.53;;;;;;;;;;5015165;28;20830;-68
2022/12/10 14:46:44;;;;;;;54.20;24.67;;;;;;;;;;4994472;28;20539;-67
2022/12/10 14:49:19;;;;;;;48.13;22.50;;;;;;;;;;4983129;28;20473;-67